Time;durP1;ratioP1;P1;durP2;ratioP2;P2;SDS_P1;SDS_P2;PMS_P1;PMS_P2;Temp;Humidity;BMP_temperature;BMP_pressure;BME280_temperature;BME280_humidity;BME280_pressure;Samples;Min_cycle;Max_cycle;Signal;HPM_P1;HPM_P2
2022/10/23 00:01:14;;;;;;;13.77;6.80;;;16.70;68.00;;;;;;5093189;28;20242;-82
2022/10/23 00:03:43;;;;;;;11.80;6.27;;;16.70;68.00;;;;;;5090537;28;20284;-82
2022/10/23 00:06:12;;;;;;;11.77;6.37;;;16.70;68.00;;;;;;5090331;28;20603;-82
2022/10/23 00:08:41;;;;;;;10.27;6.50;;;16.70;68.10;;;;;;5085784;28;20221;-79
2022/10/23 00:11:09;;;;;;;10.97;6.60;;;16.60;68.10;;;;;;5092893;28;20550;-82
2022/10/23 00:13:39;;;;;;;13.53;7.07;;;16.60;68.10;;;;;;5088458;28;20197;-81
2022/10/23 00:16:09;;;;;;;12.03;6.70;;;16.60;68.10;;;;;;5088684;28;20202;-82
2022/10/23 00:18:38;;;;;;;13.63;6.97;;;16.60;68.20;;;;;;5086828;28;20233;-81
2022/10/23 00:21:08;;;;;;;22.60;6.87;;;16.60;68.20;;;;;;5089194;28;20284;-82
2022/10/23 00:23:37;;;;;;;15.63;6.83;;;16.60;68.30;;;;;;5090667;28;20282;-83
2022/10/23 00:26:06;;;;;;;11.27;6.43;;;16.60;68.30;;;;;;5085534;28;20240;-82
2022/10/23 00:28:35;;;;;;;13.13;6.23;;;16.50;68.30;;;;;;5090889;28;20194;-80
2022/10/23 00:31:06;;;;;;;18.20;7.07;;;16.50;68.40;;;;;;5096694;28;20296;-80
2022/10/23 00:33:34;;;;;;;19.47;7.27;;;16.50;68.40;;;;;;5091380;28;22102;-81
2022/10/23 00:36:05;;;;;;;16.00;7.47;;;16.40;68.50;;;;;;5091391;28;20629;-82
2022/10/23 00:38:33;;;;;;;17.90;7.40;;;16.40;68.60;;;;;;5085153;28;20682;-79
2022/10/23 00:41:02;;;;;;;15.37;7.73;;;16.40;68.60;;;;;;5093852;28;20655;-80
2022/10/23 00:43:32;;;;;;;14.17;7.53;;;16.40;68.70;;;;;;5091096;28;20202;-80
2022/10/23 00:46:00;;;;;;;16.97;8.13;;;16.30;68.70;;;;;;5095668;28;20221;-82
2022/10/23 00:48:30;;;;;;;13.00;7.53;;;16.30;68.80;;;;;;5090703;28;20276;-81
2022/10/23 00:50:58;;;;;;;14.87;7.07;;;16.30;68.90;;;;;;5090853;28;20708;-83
2022/10/23 00:53:26;;;;;;;16.30;6.70;;;16.20;69.00;;;;;;5092613;28;20659;-82
2022/10/23 00:55:58;;;;;;;12.77;6.97;;;16.20;69.00;;;;;;5090457;28;20263;-80
2022/10/23 00:58:27;;;;;;;13.77;7.63;;;16.20;69.10;;;;;;5090787;28;20225;-82
2022/10/23 01:00:56;;;;;;;13.63;6.73;;;16.20;69.10;;;;;;5090765;28;20193;-79
2022/10/23 01:03:27;;;;;;;14.60;8.00;;;16.20;69.30;;;;;;5089735;28;20197;-81
2022/10/23 01:06:03;;;;;;;14.10;7.67;;;16.10;69.40;;;;;;5090984;28;20185;-82
2022/10/23 01:08:35;;;;;;;13.90;7.87;;;16.10;69.50;;;;;;5088720;28;20189;-82
2022/10/23 01:11:10;;;;;;;14.50;6.20;;;16.10;69.70;;;;;;5096927;28;20238;-82
2022/10/23 01:13:45;;;;;;;16.07;7.10;;;16.10;69.80;;;;;;5095464;28;20229;-81
2022/10/23 01:16:18;;;;;;;15.50;7.33;;;16.00;69.70;;;;;;5095410;28;20244;-83
2022/10/23 01:18:54;;;;;;;14.73;7.60;;;16.00;69.80;;;;;;5095586;28;20196;-82
2022/10/23 01:21:31;;;;;;;12.90;7.20;;;16.00;69.90;;;;;;5088935;28;20235;-83
2022/10/23 01:24:08;;;;;;;14.27;6.77;;;16.00;70.00;;;;;;5095873;28;20225;-81
2022/10/23 01:26:50;;;;;;;16.23;7.37;;;16.00;70.00;;;;;;5096231;28;20599;-82
2022/10/23 01:29:25;;;;;;;15.03;7.00;;;16.00;70.10;;;;;;5089060;28;20375;-81
2022/10/23 01:31:59;;;;;;;17.73;8.53;;;16.00;70.10;;;;;;5099744;28;20221;-82
2022/10/23 01:34:33;;;;;;;13.33;7.40;;;16.00;70.20;;;;;;5092988;28;20719;-79
2022/10/23 01:37:05;;;;;;;13.87;7.07;;;15.90;70.30;;;;;;5093539;28;20209;-85
2022/10/23 01:39:40;;;;;;;13.20;7.50;;;15.90;70.50;;;;;;5093322;28;20233;-82
2022/10/23 01:42:12;;;;;;;14.43;7.40;;;15.90;70.50;;;;;;5094936;28;20189;-79
2022/10/23 01:44:45;;;;;;;12.20;6.70;;;15.90;70.60;;;;;;5101682;28;20243;-82
2022/10/23 01:47:17;;;;;;;11.87;6.37;;;15.90;70.80;;;;;;5095326;28;20741;-81
2022/10/23 01:49:46;;;;;;;13.80;7.00;;;15.90;71.00;;;;;;5091325;28;20189;-83
2022/10/23 01:52:17;;;;;;;14.07;6.90;;;15.80;71.00;;;;;;5094911;28;20706;-81
2022/10/23 01:54:49;;;;;;;12.43;6.87;;;15.80;71.10;;;;;;5097118;28;20189;-80
2022/10/23 01:57:20;;;;;;;14.37;7.00;;;15.80;71.20;;;;;;5088895;28;20241;-80
2022/10/23 01:59:54;;;;;;;13.30;6.97;;;15.80;71.30;;;;;;5091903;28;20218;-81
2022/10/23 02:02:24;;;;;;;11.90;6.57;;;15.90;71.20;;;;;;5094510;28;20302;-81
2022/10/23 02:04:57;;;;;;;12.40;6.43;;;15.90;71.20;;;;;;5094680;28;20206;-81
2022/10/23 02:07:26;;;;;;;15.30;7.63;;;15.90;71.20;;;;;;5098153;28;20217;-81
2022/10/23 02:09:55;;;;;;;11.70;6.67;;;15.90;71.30;;;;;;5099394;28;20231;-82
2022/10/23 02:12:31;;;;;;;12.27;6.43;;;15.90;71.30;;;;;;5090309;28;20284;-81
2022/10/23 02:15:09;;;;;;;15.33;7.57;;;16.00;71.30;;;;;;5091107;28;20186;-82
2022/10/23 02:17:47;;;;;;;13.10;6.50;;;16.00;71.30;;;;;;5094436;28;20209;-83
2022/10/23 02:20:20;;;;;;;14.13;7.57;;;16.00;71.30;;;;;;5092300;28;20685;-85
2022/10/23 02:22:57;;;;;;;15.83;6.90;;;16.10;71.30;;;;;;5090334;28;20295;-82
2022/10/23 02:25:31;;;;;;;14.73;6.67;;;16.10;71.10;;;;;;5091393;28;20280;-78
2022/10/23 02:28:05;;;;;;;16.73;6.83;;;16.10;71.10;;;;;;5094948;28;20189;-82
2022/10/23 02:30:37;;;;;;;11.23;7.20;;;16.10;71.10;;;;;;5096671;28;20661;-79
2022/10/23 02:33:08;;;;;;;13.97;7.17;;;16.10;71.20;;;;;;5091212;28;20228;-81
2022/10/23 02:35:36;;;;;;;13.37;6.83;;;16.10;71.10;;;;;;5090836;28;20229;-79
2022/10/23 02:38:24;;;;;;;12.17;6.40;;;16.10;71.10;;;;;;5093252;28;20238;-82
2022/10/23 02:40:54;;;;;;;14.50;7.27;;;16.10;71.20;;;;;;5098853;28;20198;-82
2022/10/23 02:43:27;;;;;;;18.53;7.70;;;16.10;71.30;;;;;;5093179;28;20610;-79
2022/10/23 02:46:04;;;;;;;12.83;7.10;;;16.10;71.30;;;;;;5089618;28;20297;-81
2022/10/23 02:48:40;;;;;;;13.40;7.70;;;16.00;71.30;;;;;;5092540;28;20247;-79
2022/10/23 02:51:14;;;;;;;11.47;7.43;;;16.10;71.40;;;;;;5092693;28;20223;-83
2022/10/23 02:53:52;;;;;;;12.33;7.10;;;16.00;71.40;;;;;;5091611;28;20224;-79
2022/10/23 02:56:27;;;;;;;17.70;8.33;;;16.10;71.40;;;;;;5094551;28;20190;-82
2022/10/23 02:59:00;;;;;;;16.87;7.33;;;16.00;71.60;;;;;;5093467;28;20221;-81
2022/10/23 03:01:38;;;;;;;14.00;6.83;;;16.00;71.60;;;;;;5101129;28;20232;-81
2022/10/23 03:04:10;;;;;;;11.83;6.43;;;16.00;71.60;;;;;;5090752;28;20194;-83
2022/10/23 03:06:38;;;;;;;18.27;7.00;;;16.00;71.70;;;;;;5090793;28;20277;-82
2022/10/23 03:09:09;;;;;;;15.93;7.10;;;16.00;71.70;;;;;;5094537;28;20189;-81
2022/10/23 03:11:37;;;;;;;15.53;6.97;;;15.90;71.80;;;;;;5097833;28;20229;-79
2022/10/23 03:14:05;;;;;;;13.47;6.53;;;15.90;71.90;;;;;;5095847;28;20240;-80
2022/10/23 03:16:35;;;;;;;15.17;7.37;;;15.90;71.90;;;;;;5087131;28;20216;-83
2022/10/23 03:19:03;;;;;;;15.17;7.00;;;16.00;72.00;;;;;;5094100;28;20293;-80
2022/10/23 03:21:32;;;;;;;14.87;7.43;;;16.00;71.90;;;;;;5094619;28;20283;-83
2022/10/23 03:24:00;;;;;;;15.20;7.23;;;16.00;71.80;;;;;;5090813;28;20249;-82
2022/10/23 03:26:28;;;;;;;13.83;7.57;;;16.00;71.70;;;;;;5096073;28;20229;-79
2022/10/23 03:28:57;;;;;;;16.13;7.53;;;16.00;71.70;;;;;;5087803;28;20281;-81
2022/10/23 03:31:25;;;;;;;15.57;7.50;;;16.00;71.60;;;;;;5095296;28;20225;-81
2022/10/23 03:33:55;;;;;;;14.47;6.97;;;16.00;71.70;;;;;;5091567;28;20201;-82
2022/10/23 03:36:23;;;;;;;17.40;6.40;;;16.00;71.70;;;;;;5090013;28;20499;-81
2022/10/23 03:38:52;;;;;;;15.27;8.07;;;16.00;71.60;;;;;;5093258;28;20221;-82
2022/10/23 03:41:20;;;;;;;12.30;7.23;;;16.00;71.70;;;;;;5100434;28;20221;-82
2022/10/23 03:43:48;;;;;;;11.93;7.20;;;16.00;71.70;;;;;;5093003;28;20495;-82
2022/10/23 03:46:17;;;;;;;15.70;7.10;;;16.00;71.80;;;;;;5096989;28;20221;-83
2022/10/23 03:48:45;;;;;;;13.67;7.70;;;16.00;71.90;;;;;;5096556;28;20232;-81
2022/10/23 03:51:15;;;;;;;12.40;6.70;;;16.00;71.80;;;;;;5098575;28;20233;-83
2022/10/23 03:53:43;;;;;;;15.43;7.40;;;16.00;72.00;;;;;;5090692;28;20672;-82
2022/10/23 03:56:11;;;;;;;16.43;6.90;;;15.90;72.00;;;;;;5094967;28;20221;-78
2022/10/23 03:58:39;;;;;;;17.80;8.03;;;16.00;72.00;;;;;;5086643;28;20268;-81
2022/10/23 04:01:08;;;;;;;15.37;7.70;;;16.00;72.00;;;;;;5090735;28;20280;-80
2022/10/23 04:03:36;;;;;;;15.00;7.40;;;16.00;72.00;;;;;;5088871;28;20654;-80
2022/10/23 04:06:05;;;;;;;19.90;8.27;;;16.00;72.00;;;;;;5091133;28;20662;-81
2022/10/23 04:08:34;;;;;;;13.33;7.87;;;16.00;72.00;;;;;;5090748;28;20442;-77
2022/10/23 04:11:03;;;;;;;14.80;8.15;;;16.00;72.00;;;;;;5090601;28;20584;-82
2022/10/23 04:13:31;;;;;;;13.40;7.63;;;16.00;72.20;;;;;;5090088;28;20217;-82
2022/10/23 04:15:59;;;;;;;15.37;7.23;;;16.00;72.00;;;;;;5094127;28;20549;-81
2022/10/23 04:18:28;;;;;;;13.20;6.83;;;16.00;72.10;;;;;;5091295;28;20306;-81
2022/10/23 04:20:56;;;;;;;13.93;7.07;;;16.00;72.10;;;;;;5089053;28;20202;-82
2022/10/23 04:23:25;;;;;;;11.00;6.97;;;16.00;72.00;;;;;;5097306;28;20229;-85
2022/10/23 04:25:59;;;;;;;14.37;7.20;;;16.00;72.00;;;;;;5088704;28;20678;-79
2022/10/23 04:28:27;;;;;;;17.13;7.63;;;16.00;72.20;;;;;;5086848;28;20220;-83
2022/10/23 04:30:55;;;;;;;14.03;7.90;;;16.00;72.20;;;;;;5091998;28;20226;-78
2022/10/23 04:33:24;;;;;;;14.37;7.73;;;16.00;72.40;;;;;;5100386;28;20232;-84
2022/10/23 04:35:52;;;;;;;13.80;7.90;;;16.00;72.50;;;;;;5087312;28;20251;-82
2022/10/23 04:38:20;;;;;;;16.80;8.50;;;16.00;72.50;;;;;;5090572;28;20739;-82
2022/10/23 04:40:49;;;;;;;13.80;7.60;;;16.00;72.50;;;;;;5092281;28;20252;-81
2022/10/23 04:43:18;;;;;;;15.73;7.90;;;16.00;72.50;;;;;;5093706;28;20202;-83
2022/10/23 04:45:49;;;;;;;18.07;8.47;;;15.90;72.70;;;;;;5098390;28;20224;-81
2022/10/23 04:48:17;;;;;;;15.00;8.00;;;15.90;72.80;;;;;;5095505;28;20324;-81
2022/10/23 04:50:55;;;;;;;18.77;9.02;;;15.90;73.10;;;;;;5104941;28;20483;-81
2022/10/23 04:53:27;;;;;;;18.57;8.27;;;15.90;73.40;;;;;;5098837;28;20221;-81
2022/10/23 04:55:58;;;;;;;15.93;8.83;;;15.80;73.60;;;;;;5099636;28;20226;-81
2022/10/23 04:58:29;;;;;;;14.93;8.40;;;15.80;73.60;;;;;;5094057;28;20240;-84
2022/10/23 05:00:57;;;;;;;15.00;8.20;;;15.80;73.50;;;;;;5094341;28;20322;-82
2022/10/23 05:03:27;;;;;;;16.17;9.27;;;15.80;73.70;;;;;;5088516;28;20194;-81
2022/10/23 05:05:56;;;;;;;16.50;8.13;;;15.70;73.80;;;;;;5089536;28;20236;-83
2022/10/23 05:08:25;;;;;;;21.50;9.47;;;15.80;73.90;;;;;;5092179;28;20276;-80
2022/10/23 05:10:53;;;;;;;16.50;9.10;;;15.70;74.00;;;;;;5088616;28;20202;-82
2022/10/23 05:13:22;;;;;;;14.33;7.57;;;15.70;74.10;;;;;;5092289;28;20229;-80
2022/10/23 05:15:53;;;;;;;21.97;8.97;;;15.70;74.10;;;;;;5091921;28;20194;-79
2022/10/23 05:18:26;;;;;;;18.17;8.50;;;15.70;74.20;;;;;;5089372;28;20752;-83
2022/10/23 05:20:58;;;;;;;18.93;8.40;;;15.70;74.20;;;;;;5089954;28;20259;-81
2022/10/23 05:23:28;;;;;;;17.87;9.63;;;15.70;74.40;;;;;;5090482;28;20333;-82
2022/10/23 05:25:56;;;;;;;22.83;9.70;;;15.70;74.50;;;;;;5089781;28;20249;-83
2022/10/23 05:28:24;;;;;;;13.17;7.97;;;15.70;74.60;;;;;;5084946;28;20259;-78
2022/10/23 05:30:54;;;;;;;16.33;8.47;;;15.60;74.80;;;;;;5093586;28;20230;-80
2022/10/23 05:33:22;;;;;;;20.03;8.37;;;15.60;74.80;;;;;;5093754;28;20232;-80
2022/10/23 05:35:50;;;;;;;15.87;8.33;;;15.70;74.80;;;;;;5090982;28;20737;-82
2022/10/23 05:38:19;;;;;;;16.23;9.10;;;15.70;74.80;;;;;;5090500;28;20218;-83
2022/10/23 05:40:47;;;;;;;18.87;8.63;;;15.70;74.80;;;;;;5086461;28;20662;-83
2022/10/23 05:43:15;;;;;;;16.90;8.70;;;15.70;74.80;;;;;;5098778;28;20194;-84
2022/10/23 05:45:44;;;;;;;23.73;9.67;;;15.70;74.90;;;;;;5084490;28;20197;-82
2022/10/23 05:48:16;;;;;;;16.43;9.33;;;15.70;75.10;;;;;;5086845;28;20673;-84
2022/10/23 05:51:05;;;;;;;15.53;8.63;;;15.70;75.10;;;;;;5090382;28;20189;-82
2022/10/23 05:53:33;;;;;;;17.30;8.40;;;15.80;75.00;;;;;;5092691;28;20225;-82
2022/10/23 05:56:07;;;;;;;21.80;9.23;;;15.80;74.80;;;;;;5093708;28;20257;-83
2022/10/23 05:58:35;;;;;;;18.80;9.10;;;15.80;74.80;;;;;;5099474;28;20248;-81
2022/10/23 06:01:06;;;;;;;17.07;8.40;;;15.90;74.80;;;;;;5096102;28;20201;-80
2022/10/23 06:03:36;;;;;;;15.93;9.30;;;15.90;74.80;;;;;;5100631;28;20198;-84
2022/10/23 06:06:05;;;;;;;17.07;9.33;;;15.90;74.80;;;;;;5096690;28;20728;-83
2022/10/23 06:08:34;;;;;;;19.42;10.57;;;15.90;74.90;;;;;;5093340;28;20457;-82
2022/10/23 06:11:07;;;;;;;16.10;8.80;;;16.00;75.10;;;;;;5097506;28;20193;-83
2022/10/23 06:13:35;;;;;;;17.43;8.87;;;16.00;75.10;;;;;;5094810;28;20284;-82
2022/10/23 06:16:11;;;;;;;17.87;8.60;;;16.10;75.00;;;;;;5096591;28;20205;-82
2022/10/23 06:18:40;;;;;;;15.77;9.03;;;16.10;75.00;;;;;;5092857;28;20655;-84
2022/10/23 06:21:09;;;;;;;16.17;8.80;;;16.20;75.10;;;;;;5098347;28;20233;-81
2022/10/23 06:23:39;;;;;;;13.80;8.37;;;16.20;75.00;;;;;;5095590;28;20592;-82
2022/10/23 06:26:09;;;;;;;16.30;8.60;;;16.30;75.00;;;;;;5092959;28;20194;-81
2022/10/23 06:28:38;;;;;;;17.53;9.80;;;16.30;74.90;;;;;;5098192;28;20662;-81
2022/10/23 06:31:07;;;;;;;18.83;8.50;;;16.40;74.80;;;;;;5091585;28;20256;-83
2022/10/23 06:33:36;;;;;;;13.43;8.03;;;16.50;74.90;;;;;;5094631;28;20654;-84
2022/10/23 06:36:09;;;;;;;18.20;8.10;;;16.50;74.70;;;;;;5094894;28;20229;-83
2022/10/23 06:38:39;;;;;;;19.83;8.17;;;16.60;74.70;;;;;;5093512;28;20210;-85
2022/10/23 06:41:11;;;;;;;16.23;8.35;;;16.70;74.70;;;;;;5092519;28;20490;-83
2022/10/23 06:43:39;;;;;;;15.03;8.40;;;16.70;74.90;;;;;;5091331;28;20197;-84
2022/10/23 06:46:08;;;;;;;15.83;7.93;;;16.80;74.70;;;;;;5096704;28;20232;-84
2022/10/23 06:48:37;;;;;;;16.13;7.67;;;16.90;74.70;;;;;;5089648;28;20190;-84
2022/10/23 06:51:08;;;;;;;16.20;7.97;;;16.90;74.60;;;;;;5095003;28;20255;-83
2022/10/23 06:53:37;;;;;;;16.63;7.67;;;17.00;74.60;;;;;;5094552;28;20247;-84
2022/10/23 06:56:08;;;;;;;16.17;7.60;;;17.10;74.80;;;;;;5093385;28;20476;-83
2022/10/23 06:58:38;;;;;;;11.07;7.23;;;17.10;74.80;;;;;;5090464;28;20220;-83
2022/10/23 07:01:09;;;;;;;13.40;7.93;;;17.10;74.70;;;;;;5094478;28;20646;-83
2022/10/23 07:03:37;;;;;;;13.80;8.23;;;17.20;74.70;;;;;;5096932;28;20197;-83
2022/10/23 07:06:08;;;;;;;13.77;7.53;;;17.30;74.60;;;;;;5095236;28;20210;-81
2022/10/23 07:08:38;;;;;;;16.87;8.07;;;17.30;74.60;;;;;;5096405;28;20189;-83
2022/10/23 07:11:07;;;;;;;15.87;8.40;;;17.40;74.10;;;;;;5094479;28;20280;-82
2022/10/23 07:13:37;;;;;;;15.37;8.07;;;17.50;74.00;;;;;;5092859;28;20209;-82
2022/10/23 07:16:13;;;;;;;11.07;6.97;;;17.50;73.90;;;;;;5089821;28;20198;-81
2022/10/23 07:18:42;;;;;;;12.50;7.10;;;17.60;73.80;;;;;;5092223;28;20731;-83
2022/10/23 07:21:12;;;;;;;13.23;7.37;;;17.70;73.70;;;;;;5101306;28;20244;-81
2022/10/23 07:23:40;;;;;;;14.43;7.30;;;17.80;73.70;;;;;;5094506;28;20258;-82
2022/10/23 07:26:10;;;;;;;16.47;7.33;;;17.80;73.50;;;;;;5092670;28;20232;-83
2022/10/23 07:28:40;;;;;;;11.50;6.70;;;17.90;73.30;;;;;;5088084;28;20343;-85
2022/10/23 07:31:09;;;;;;;14.40;7.13;;;17.90;73.00;;;;;;5096958;28;20632;-80
2022/10/23 07:33:37;;;;;;;13.30;7.40;;;18.10;73.10;;;;;;5097392;28;20289;-83
2022/10/23 07:36:07;;;;;;;12.53;6.80;;;18.10;73.00;;;;;;5093660;28;20201;-81
2022/10/23 07:38:37;;;;;;;9.83;6.27;;;18.20;73.10;;;;;;5099256;28;20247;-83
2022/10/23 07:41:06;;;;;;;14.17;5.77;;;18.30;72.80;;;;;;5098041;28;20708;-83
2022/10/23 07:43:38;;;;;;;14.50;7.10;;;18.40;72.80;;;;;;5098070;28;20200;-77
2022/10/23 07:46:08;;;;;;;14.80;7.03;;;18.50;72.70;;;;;;5096249;28;20193;-82
2022/10/23 07:48:37;;;;;;;9.50;5.97;;;18.50;72.40;;;;;;5093620;28;20228;-84
2022/10/23 07:51:09;;;;;;;10.73;5.70;;;18.60;72.40;;;;;;5094238;28;20190;-82
2022/10/23 07:53:41;;;;;;;12.83;5.73;;;18.80;72.20;;;;;;5092782;28;20711;-81
2022/10/23 07:56:15;;;;;;;10.23;6.00;;;18.90;71.90;;;;;;5096427;28;20259;-83
2022/10/23 07:58:44;;;;;;;10.87;5.13;;;18.90;71.50;;;;;;5092493;28;20240;-84
2022/10/23 08:01:17;;;;;;;9.70;5.50;;;19.00;71.10;;;;;;5091237;28;20707;-82
2022/10/23 08:03:45;;;;;;;12.43;5.50;;;19.10;71.10;;;;;;5098361;28;20714;-82
2022/10/23 08:06:14;;;;;;;10.60;5.13;;;19.20;70.90;;;;;;5089660;28;20246;-82
2022/10/23 08:08:43;;;;;;;7.90;4.73;;;19.30;70.70;;;;;;5090245;28;20645;-81
2022/10/23 08:11:23;;;;;;;9.17;4.97;;;19.40;70.30;;;;;;5095070;28;20253;-83
2022/10/23 08:13:52;;;;;;;10.93;5.37;;;19.50;70.20;;;;;;5094055;28;20258;-82
2022/10/23 08:16:35;;;;;;;8.43;4.55;;;19.60;69.90;;;;;;5094888;28;20200;-83
2022/10/23 08:19:04;;;;;;;9.15;4.55;;;19.60;69.90;;;;;;5089313;28;20190;-85
2022/10/23 08:21:32;;;;;;;9.85;4.47;;;19.70;69.50;;;;;;5091532;28;20202;-81
2022/10/23 08:24:02;;;;;;;7.85;4.40;;;19.90;69.30;;;;;;5089864;28;20238;-79
2022/10/23 08:26:31;;;;;;;10.73;4.53;;;19.90;69.00;;;;;;5097079;28;20619;-80
2022/10/23 08:28:59;;;;;;;9.68;4.88;;;20.00;68.80;;;;;;5090614;28;20284;-79
2022/10/23 08:31:28;;;;;;;8.30;4.80;;;20.10;68.60;;;;;;5094064;28;20281;-81
2022/10/23 08:33:56;;;;;;;11.15;4.03;;;20.20;68.30;;;;;;5089508;28;20229;-82
2022/10/23 08:36:26;;;;;;;9.07;4.05;;;20.20;68.30;;;;;;5094765;28;20251;-80
2022/10/23 08:38:56;;;;;;;9.10;4.15;;;20.30;68.10;;;;;;5084000;28;20673;-80
2022/10/23 08:41:30;;;;;;;8.88;4.20;;;20.40;67.40;;;;;;5097628;28;20209;-83
2022/10/23 08:44:07;;;;;;;7.03;4.40;;;20.50;67.10;;;;;;5090451;28;20198;-82
2022/10/23 08:46:40;;;;;;;12.30;3.75;;;20.60;67.30;;;;;;5088839;28;20251;-81
2022/10/23 08:49:22;;;;;;;13.13;4.63;;;20.60;67.10;;;;;;5095052;28;20292;-85
2022/10/23 08:51:55;;;;;;;9.63;4.45;;;20.80;67.00;;;;;;5093308;28;20634;-80
2022/10/23 08:54:28;;;;;;;6.80;3.80;;;20.80;66.60;;;;;;5089819;28;20194;-82
2022/10/23 08:57:04;;;;;;;9.85;4.00;;;20.90;66.70;;;;;;5089629;28;20715;-79
2022/10/23 08:59:38;;;;;;;6.20;3.80;;;21.00;66.40;;;;;;5091756;28;20277;-85
2022/10/23 09:02:19;;;;;;;6.10;3.72;;;21.10;66.30;;;;;;5096098;28;20196;-82
2022/10/23 09:04:49;;;;;;;8.63;3.40;;;21.20;66.10;;;;;;5091089;28;20246;-81
2022/10/23 09:07:32;;;;;;;5.72;3.03;;;21.20;65.90;;;;;;5092373;28;20197;-79
2022/10/23 09:10:19;;;;;;;9.98;3.03;;;21.30;65.80;;;;;;5090081;28;20224;-84
2022/10/23 09:12:49;;;;;;;5.10;2.88;;;21.40;65.60;;;;;;5088064;28;20611;-81
2022/10/23 09:15:34;;;;;;;7.63;3.10;;;21.50;65.30;;;;;;5082314;28;21589;-84
2022/10/23 09:18:14;;;;;;;4.93;2.92;;;21.60;65.00;;;;;;5097980;28;20640;-87
2022/10/23 09:20:46;;;;;;;7.13;2.60;;;21.70;64.60;;;;;;5088725;28;20224;-85
2022/10/23 09:23:17;;;;;;;5.93;2.67;;;21.80;64.60;;;;;;5088007;28;20221;-84
2022/10/23 09:25:47;;;;;;;5.78;2.72;;;21.80;64.60;;;;;;5096517;28;20233;-86
2022/10/23 09:28:21;;;;;;;4.72;2.20;;;21.90;63.70;;;;;;5093283;28;20735;-85
2022/10/23 09:30:51;;;;;;;5.63;2.40;;;21.90;63.20;;;;;;5095619;28;20182;-84
2022/10/23 09:33:22;;;;;;;4.40;2.22;;;22.00;63.50;;;;;;5095688;28;20229;-83
2022/10/23 09:35:58;;;;;;;5.43;2.08;;;22.00;63.00;;;;;;5090918;28;20225;-90
2022/10/23 09:38:30;;;;;;;4.93;2.25;;;22.10;63.10;;;;;;5098482;28;20306;-87
2022/10/23 09:41:02;;;;;;;3.75;1.73;;;22.10;62.80;;;;;;5095557;28;20610;-85
2022/10/23 09:43:32;;;;;;;4.18;1.92;;;22.20;62.80;;;;;;5095737;28;20442;-85
2022/10/23 09:46:03;;;;;;;3.47;1.88;;;22.30;62.10;;;;;;5091717;28;20194;-85
2022/10/23 09:48:33;;;;;;;6.60;1.98;;;22.30;61.90;;;;;;5093911;28;20239;-85
2022/10/23 09:51:05;;;;;;;3.42;2.00;;;22.40;62.00;;;;;;5094045;28;20202;-86
2022/10/23 09:53:37;;;;;;;2.90;1.75;;;22.40;62.00;;;;;;5091236;28;20193;-83
2022/10/23 09:56:10;;;;;;;4.88;2.22;;;22.50;61.90;;;;;;5094703;28;20288;-81
2022/10/23 09:58:52;;;;;;;4.63;2.15;;;22.50;61.30;;;;;;5100192;28;20254;-84
2022/10/23 10:01:24;;;;;;;3.08;1.90;;;22.60;61.10;;;;;;5095166;28;20241;-83
2022/10/23 10:03:53;;;;;;;4.60;2.53;;;22.60;61.10;;;;;;5094591;28;20251;-86
2022/10/23 10:06:23;;;;;;;5.25;1.83;;;22.70;61.00;;;;;;5096202;28;20625;-85
2022/10/23 10:08:53;;;;;;;6.05;2.30;;;22.70;60.70;;;;;;5093794;28;20193;-81
2022/10/23 10:11:29;;;;;;;4.05;2.33;;;22.80;60.80;;;;;;5097417;28;20214;-84
2022/10/23 10:14:27;;;;;;;3.97;2.00;;;22.80;60.40;;;;;;5101217;28;20219;-81
2022/10/23 10:17:01;;;;;;;5.32;2.60;;;22.80;59.50;;;;;;5093796;28;20194;-84
2022/10/23 10:19:48;;;;;;;6.93;2.33;;;22.90;59.60;;;;;;5094785;28;20674;-83
2022/10/23 10:22:28;;;;;;;5.97;2.65;;;23.00;59.50;;;;;;5094361;28;20305;-86
2022/10/23 10:25:01;;;;;;;5.72;2.42;;;23.00;59.40;;;;;;5090713;28;20313;-85
2022/10/23 10:27:47;;;;;;;4.82;2.30;;;23.10;59.50;;;;;;5099485;28;20198;-80
2022/10/23 10:30:21;;;;;;;5.22;2.30;;;23.20;59.60;;;;;;5092787;28;20201;-78
2022/10/23 10:32:57;;;;;;;5.22;2.10;;;23.20;59.30;;;;;;5094491;28;20200;-83
2022/10/23 10:35:40;;;;;;;4.70;2.40;;;23.30;59.40;;;;;;5092702;28;20561;-83
2022/10/23 10:38:36;;;;;;;4.35;2.40;;;23.30;59.30;;;;;;5096582;28;20189;-84
2022/10/23 10:41:25;;;;;;;8.93;2.85;;;23.30;58.70;;;;;;5096597;28;20291;-85
2022/10/23 10:44:07;;;;;;;3.80;2.08;;;23.40;58.30;;;;;;5091678;28;20574;-83
2022/10/23 10:46:44;;;;;;;6.70;2.67;;;23.40;58.50;;;;;;5094179;28;20232;-84
2022/10/23 10:49:19;;;;;;;4.05;2.20;;;23.50;58.30;;;;;;5093362;28;20189;-84
2022/10/23 10:51:56;;;;;;;7.50;2.30;;;23.50;58.00;;;;;;5105884;28;20193;-84
2022/10/23 10:54:36;;;;;;;4.05;2.15;;;23.60;57.90;;;;;;5092106;28;20198;-83
2022/10/23 10:57:16;;;;;;;5.35;2.17;;;23.60;57.60;;;;;;5103173;28;20250;-83
2022/10/23 10:59:50;;;;;;;3.60;2.10;;;23.60;57.80;;;;;;5097090;28;20242;-85
2022/10/23 11:02:28;;;;;;;5.53;2.65;;;23.70;57.80;;;;;;5099895;28;20237;-84
2022/10/23 11:05:03;;;;;;;5.03;2.63;;;23.80;57.60;;;;;;5095897;28;20198;-86
2022/10/23 11:07:37;;;;;;;6.10;2.35;;;23.80;57.70;;;;;;5092600;28;20206;-79
2022/10/23 11:10:17;;;;;;;3.53;1.85;;;23.80;57.10;;;;;;5095567;28;20735;-83
2022/10/23 11:12:56;;;;;;;28.17;10.88;;;23.80;57.00;;;;;;5093616;28;20677;-87
2022/10/23 11:15:44;;;;;;;4.78;2.45;;;23.90;57.20;;;;;;5088419;28;20653;-85
2022/10/23 11:18:24;;;;;;;7.07;2.38;;;23.90;57.10;;;;;;5086289;28;20231;-84
2022/10/23 11:21:07;;;;;;;5.88;2.47;;;24.00;57.20;;;;;;5102040;28;20247;-87
2022/10/23 11:24:22;;;;;;;4.38;1.90;;;24.00;57.20;;;;;;5091255;28;20465;-86
2022/10/23 11:27:11;;;;;;;2.67;1.25;;;24.10;55.90;;;;;;5070535;28;20620;-85
2022/10/23 11:29:58;;;;;;;4.97;1.65;;;24.10;55.80;;;;;;5091643;28;20205;-86
2022/10/23 11:32:46;;;;;;;4.28;1.85;;;24.10;55.70;;;;;;5090232;28;20205;-90
2022/10/23 11:35:29;;;;;;;5.93;2.50;;;24.20;55.70;;;;;;5091409;28;20713;-84
2022/10/23 11:38:00;;;;;;;4.97;2.03;;;24.20;55.80;;;;;;5083728;28;20691;-88
2022/10/23 11:40:29;;;;;;;3.90;1.80;;;24.20;55.70;;;;;;5097728;28;20650;-83
2022/10/23 11:42:57;;;;;;;5.35;2.28;;;24.30;56.00;;;;;;5093134;28;20256;-87
2022/10/23 11:45:32;;;;;;;2.97;2.00;;;24.30;55.90;;;;;;5092460;28;20643;-85
2022/10/23 11:48:03;;;;;;;10.40;5.15;;;24.40;55.50;;;;;;5077614;28;20670;-86
2022/10/23 11:50:49;;;;;;;2.65;1.30;;;24.40;55.70;;;;;;5087789;28;20554;-87
2022/10/23 11:53:37;;;;;;;4.15;1.90;;;24.50;55.30;;;;;;5087719;28;20197;-84
2022/10/23 11:56:24;;;;;;;4.60;1.83;;;24.50;55.60;;;;;;5088880;28;20255;-83
2022/10/23 11:58:54;;;;;;;3.50;1.90;;;24.50;55.70;;;;;;5079593;28;20264;-85
2022/10/23 12:01:33;;;;;;;2.63;1.45;;;24.50;55.20;;;;;;5089033;28;20260;-87
2022/10/23 12:04:06;;;;;;;3.63;1.50;;;24.60;54.50;;;;;;5096256;28;20219;-85
2022/10/23 12:06:41;;;;;;;4.53;1.63;;;24.60;54.70;;;;;;5087312;28;20194;-82
2022/10/23 12:09:24;;;;;;;6.57;2.00;;;24.60;54.10;;;;;;5086297;28;20288;-85
2022/10/23 12:12:05;;;;;;;2.50;1.23;;;24.60;54.30;;;;;;5089221;28;20225;-82
2022/10/23 12:14:35;;;;;;;6.82;1.92;;;24.70;54.00;;;;;;5086704;28;20254;-82
2022/10/23 12:17:31;;;;;;;1.73;1.15;;;24.70;54.30;;;;;;5083753;28;20217;-86
2022/10/23 12:20:18;;;;;;;4.03;2.45;;;24.80;54.20;;;;;;5089980;28;20256;-85
2022/10/23 12:22:54;;;;;;;4.45;1.92;;;24.80;54.10;;;;;;5081938;28;20237;-84
2022/10/23 12:25:31;;;;;;;2.53;1.35;;;24.80;53.70;;;;;;5087212;28;20665;-85
2022/10/23 12:28:05;;;;;;;3.33;1.50;;;24.90;53.70;;;;;;5090279;28;20228;-86
2022/10/23 12:30:42;;;;;;;4.53;1.45;;;24.90;54.00;;;;;;5089951;28;20189;-86
2022/10/23 12:33:26;;;;;;;2.65;1.55;;;24.90;54.00;;;;;;5089817;28;20193;-84
2022/10/23 12:36:14;;;;;;;1.83;1.13;;;25.00;53.90;;;;;;5097793;28;20193;-86
2022/10/23 12:38:45;;;;;;;2.25;1.50;;;25.00;54.00;;;;;;5088232;28;20198;-85
2022/10/23 12:41:16;;;;;;;2.55;1.35;;;25.10;53.70;;;;;;5089835;28;20189;-82
2022/10/23 12:43:50;;;;;;;6.55;3.28;;;25.10;53.90;;;;;;5105512;28;20638;-84
2022/10/23 12:46:30;;;;;;;2.58;1.05;;;25.10;53.60;;;;;;5099428;28;20216;-86
2022/10/23 12:49:00;;;;;;;2.60;0.93;;;25.20;53.30;;;;;;5090894;28;20623;-84
2022/10/23 12:51:30;;;;;;;3.03;1.30;;;25.20;53.40;;;;;;5090438;28;20225;-85
2022/10/23 12:54:01;;;;;;;3.38;1.10;;;25.20;53.50;;;;;;5092100;28;20221;-80
2022/10/23 12:56:35;;;;;;;3.30;1.30;;;25.20;53.00;;;;;;5096814;28;20646;-84
2022/10/23 12:59:13;;;;;;;3.15;1.45;;;25.20;52.40;;;;;;5095986;28;20541;-84
2022/10/23 13:01:41;;;;;;;2.50;1.23;;;25.20;52.80;;;;;;5084610;28;20676;-85
2022/10/23 13:04:18;;;;;;;5.63;2.17;;;25.30;52.80;;;;;;5088199;28;20509;-85
2022/10/23 13:06:48;;;;;;;3.35;1.10;;;25.40;52.10;;;;;;5094766;28;20787;-84
2022/10/23 13:09:24;;;;;;;2.42;1.10;;;25.40;51.90;;;;;;5087439;28;20600;-84